Time;durP1;ratioP1;P1;durP2;ratioP2;P2;SDS_P1;SDS_P2;PMS_P1;PMS_P2;Temp;Humidity;BMP_temperature;BMP_pressure;BME280_temperature;BME280_humidity;BME280_pressure;Samples;Min_cycle;Max_cycle;Signal;HPM_P1;HPM_P2
2023/04/01 08:20:44;;;;;;;;;23.00;20.33;;;;;;;;5103157;27;13397;-75
2023/04/01 15:53:03;;;;;;;;;0.50;0.50;;;;;;;;5087505;27;13655;-73
2023/04/01 15:55:37;;;;;;;;;3.00;2.00;;;;;;;;5082759;28;14101;-72
2023/04/01 15:58:23;;;;;;;;;3.25;1.75;;;;;;;;5082984;28;13409;-69
2023/04/01 16:00:49;;;;;;;;;;;;;;;;;;5089087;28;8917;-69
2023/04/01 16:03:15;;;;;;;;;;;;;;;;;;5088152;28;7594;-70
2023/04/01 16:05:40;;;;;;;;;;;;;;;;;;5087982;28;7590;-69
2023/04/01 16:08:05;;;;;;;;;;;;;;;;;;5120636;28;7528;-70
2023/04/01 16:10:30;;;;;;;;;;;;;;;;;;5118981;27;7647;-70
2023/04/01 16:12:55;;;;;;;;;;;;;;;;;;5084574;28;7594;-70
2023/04/01 16:15:22;;;;;;;;;;;;;;;;;;5095870;22;7560;-79
2023/04/01 16:17:47;;;;;;;;;;;;;;;;;;5049769;28;7544;-79
2023/04/01 16:20:12;;;;;;;;;;;;;;;;;;5067447;28;7552;-79
2023/04/01 16:22:37;;;;;;;;;;;;;;;;;;5049554;28;7552;-79
2023/04/01 16:25:02;;;;;;;;;;;;;;;;;;5049964;28;7525;-79
2023/04/01 16:27:28;;;;;;;;;;;;;;;;;;5068969;28;7521;-80
2023/04/01 16:29:53;;;;;;;;;;;;;;;;;;5069124;28;7548;-77
2023/04/01 16:32:18;;;;;;;;;;;;;;;;;;5068694;28;8062;-79
2023/04/01 16:34:44;;;;;;;;;;;;;;;;;;5069067;28;7523;-77
2023/04/01 16:37:12;;;;;;;;;;;;;;;;;;5069252;28;7582;-76
2023/04/01 16:39:40;;;;;;;;;;;;;;;;;;5075903;28;7544;-75
2023/04/01 16:42:05;;;;;;;;;;;;;;;;;;5066745;28;7578;-77
2023/04/01 16:44:30;;;;;;;;;;;;;;;;;;5058311;28;7529;-77
2023/04/01 16:46:56;;;;;;;;;;;;;;;;;;5050442;28;7563;-77
2023/04/01 16:49:21;;;;;;;;;;;;;;;;;;5068139;28;7533;-77
2023/04/01 16:51:46;;;;;;;;;;;;;;;;;;5068559;28;7554;-75
2023/04/01 16:54:11;;;;;;;;;;;;;;;;;;5050616;28;7524;-76
2023/04/01 16:56:36;;;;;;;;;;;;;;;;;;5068518;28;7608;-76
2023/04/01 16:59:01;;;;;;;;;;;;;;;;;;5065109;28;7529;-80
2023/04/01 17:01:26;;;;;;;;;;;;;;;;;;5058536;28;7533;-79
2023/04/01 17:03:51;;;;;;;;;;;;;;;;;;5046571;28;7537;-78
2023/04/01 17:06:17;;;;;;;;;;;;;;;;;;5033790;28;7552;-80
2023/04/01 17:08:42;;;;;;;;;;;;;;;;;;5045624;28;7533;-80
2023/04/01 17:11:07;;;;;;;;;;;;;;;;;;5048058;28;7525;-79
2023/04/01 17:13:32;;;;;;;;;;;;;;;;;;5044139;28;7537;-79
2023/04/01 17:15:57;;;;;;;;;;;;;;;;;;5040000;28;7534;-76
2023/04/01 17:18:22;;;;;;;;;;;;;;;;;;5034263;28;7599;-76
2023/04/01 17:20:47;;;;;;;;;;;;;;;;;;5034610;28;7513;-78
2023/04/01 17:23:13;;;;;;;;;;;;;;;;;;5025010;28;7549;-78
2023/04/01 17:25:38;;;;;;;;;;;;;;;;;;5054347;28;7524;-76
2023/04/01 17:28:03;;;;;;;;;;;;;;;;;;5054433;28;7554;-76
2023/04/01 17:30:31;;;;;;;;;;;;;;;;;;5054428;28;7521;-76
2023/04/01 17:32:57;;;;;;;;;;;;;;;;;;5054436;28;7533;-76
2023/04/01 17:35:22;;;;;;;;;;;;;;;;;;5036322;28;7715;-76
2023/04/01 17:37:47;;;;;;;;;;;;;;;;;;5054166;28;7540;-76
2023/04/01 17:40:12;;;;;;;;;;;;;;;;;;5066034;28;7552;-78
2023/04/01 17:42:37;;;;;;;;;;;;;;;;;;5073725;28;7536;-81
2023/04/01 17:45:03;;;;;;;;;;;;;;;;;;5056560;28;7523;-79
2023/04/01 17:47:28;;;;;;;;;;;;;;;;;;5074568;28;7531;-78
2023/04/01 17:49:53;;;;;;;;;;;;;;;;;;5051626;28;7529;-78
2023/04/01 17:52:19;;;;;;;;;;;;;;;;;;5039546;28;7632;-78
2023/04/01 17:54:44;;;;;;;;;;;;;;;;;;5054054;28;7521;-78
2023/04/01 17:57:10;;;;;;;;;;;;;;;;;;5036047;28;7532;-80
2023/04/01 17:59:35;;;;;;;;;;;;;;;;;;5053448;28;7540;-81
2023/04/01 18:02:00;;;;;;;;;;;;;;;;;;5051698;28;8051;-79
2023/04/01 18:04:25;;;;;;;;;;;;;;;;;;5036129;28;7524;-82
2023/04/01 18:06:51;;;;;;;;;;;;;;;;;;5035380;28;7525;-80
2023/04/01 18:09:16;;;;;;;;;;;;;;;;;;5042960;28;7589;-77
2023/04/01 18:11:41;;;;;;;;;;;;;;;;;;5073694;28;7548;-78
2023/04/01 18:14:07;;;;;;;;;;;;;;;;;;5054714;28;7536;-77
2023/04/01 18:16:33;;;;;;;;;;;;;;;;;;5089075;22;7575;-77
2023/04/01 18:18:59;;;;;;;;;;;;;;;;;;5071332;28;7532;-78
2023/04/01 18:21:25;;;;;;;;;;;;;;;;;;5071910;28;7541;-83
2023/04/01 18:23:50;;;;;;;;;;;;;;;;;;5071878;28;7605;-80
2023/04/01 18:26:15;;;;;;;;;;;;;;;;;;5054354;28;7532;-80
2023/04/01 18:28:40;;;;;;;;;;;;;;;;;;5054473;28;8033;-74
2023/04/01 18:31:07;;;;;;;;;;;;;;;;;;5072180;28;7535;-80
2023/04/01 18:33:32;;;;;;;;;;;;;;;;;;5071917;28;7520;-78
2023/04/01 18:35:57;;;;;;;;;;;;;;;;;;5071968;28;7606;-80
2023/04/01 18:38:22;;;;;;;;;;;;;;;;;;5053701;28;7574;-82
2023/04/01 18:40:47;;;;;;;;;;;;;;;;;;5088707;28;7524;-81
2023/04/01 18:43:12;;;;;;;;;;;;;;;;;;5091465;28;7578;-79
2023/04/01 18:45:38;;;;;;;;;;;;;;;;;;5090095;28;7540;-73
2023/04/01 18:48:03;;;;;;;;;;;;;;;;;;5091468;28;7509;-73
2023/04/01 18:50:28;;;;;;;;;;;;;;;;;;5075782;28;7544;-72
2023/04/01 18:52:53;;;;;;;;;;;;;;;;;;5052521;28;7524;-81
2023/04/01 18:55:18;;;;;;;;;;;;;;;;;;5052399;28;7513;-76
2023/04/01 18:57:43;;;;;;;;;;;;;;;;;;5070732;28;8086;-84
2023/04/01 19:00:09;;;;;;;;;;;;;;;;;;5065721;28;7611;-79
2023/04/01 19:02:34;;;;;;;;;;;;;;;;;;5071696;28;8123;-80
2023/04/01 19:04:59;;;;;;;;;;;;;;;;;;5053409;28;7616;-73
2023/04/01 19:07:24;;;;;;;;;;;;;;;;;;5067843;28;7967;-76
2023/04/01 19:09:50;;;;;;;;;;;;;;;;;;5080203;28;7528;-74
2023/04/01 19:12:15;;;;;;;;;;;;;;;;;;5070004;28;7987;-73
2023/04/01 19:14:42;;;;;;;;;;;;;;;;;;5053124;28;7521;-79
2023/04/01 19:17:08;;;;;;;;;;;;;;;;;;5071158;28;7540;-77
2023/04/01 19:19:33;;;;;;;;;;;;;;;;;;5071375;28;7521;-72
2023/04/01 19:21:59;;;;;;;;;;;;;;;;;;5071452;28;7524;-77
2023/04/01 19:24:24;;;;;;;;;;;;;;;;;;5071590;28;7524;-79
2023/04/01 19:26:49;;;;;;;;;;;;;;;;;;5071320;28;7524;-78
2023/04/01 19:29:15;;;;;;;;;;;;;;;;;;5071410;28;7531;-79
2023/04/01 19:31:40;;;;;;;;;;;;;;;;;;5067454;28;7586;-79
2023/04/01 19:34:05;;;;;;;;;;;;;;;;;;5061812;28;7620;-80
2023/04/01 19:36:30;;;;;;;;;;;;;;;;;;5066144;28;7540;-78
2023/04/01 19:38:55;;;;;;;;;;;;;;;;;;5060662;28;7528;-77
2023/04/01 19:41:20;;;;;;;;;;;;;;;;;;5067305;28;7532;-80
2023/04/01 19:43:46;;;;;;;;;;;;;;;;;;5042515;28;7517;-79
2023/04/01 19:46:11;;;;;;;;;;;;;;;;;;5060673;28;7529;-82
2023/04/01 19:48:38;;;;;;;;;;;;;;;;;;5071202;28;7513;-77
2023/04/01 19:51:03;;;;;;;;;;;;;;;;;;5070836;28;7529;-76
2023/04/01 19:53:28;;;;;;;;;;;;;;;;;;5070953;28;7512;-76
2023/04/01 19:55:53;;;;;;;;;;;;;;;;;;5070310;28;7543;-76
2023/04/01 19:58:19;;;;;;;;;;;;;;;;;;5052667;28;7509;-76
2023/04/01 20:00:44;;;;;;;;;;;;;;;;;;5070675;28;8003;-75
2023/04/01 20:03:09;;;;;;;;;;;;;;;;;;5070709;28;7544;-75
2023/04/01 20:05:34;;;;;;;;;;;;;;;;;;5052684;28;7541;-76
2023/04/01 20:07:59;;;;;;;;;;;;;;;;;;5067360;28;7525;-75
2023/04/01 20:10:25;;;;;;;;;;;;;;;;;;5084212;28;7528;-78
2023/04/01 20:12:50;;;;;;;;;;;;;;;;;;5073056;28;7648;-79
2023/04/01 20:15:15;;;;;;;;;;;;;;;;;;5091242;28;7531;-78
2023/04/01 20:17:40;;;;;;;;;;;;;;;;;;5082909;28;7517;-73
2023/04/01 20:20:06;;;;;;;;;;;;;;;;;;5070470;28;7623;-73
2023/04/01 20:22:31;;;;;;;;;;;;;;;;;;5070806;28;7529;-76
2023/04/01 20:24:56;;;;;;;;;;;;;;;;;;5070674;28;7536;-71
2023/04/01 20:27:22;;;;;;;;;;;;;;;;;;5068923;28;8007;-74
2023/04/01 20:29:47;;;;;;;;;;;;;;;;;;5070198;28;7916;-73
2023/04/01 20:32:12;;;;;;;;;;;;;;;;;;5070477;28;7650;-74
2023/04/01 20:34:37;;;;;;;;;;;;;;;;;;5053005;28;7517;-74
2023/04/01 20:37:02;;;;;;;;;;;;;;;;;;5068188;28;7517;-75
2023/04/01 20:39:27;;;;;;;;;;;;;;;;;;5078600;28;7513;-75
2023/04/01 20:41:55;;;;;;;;;;;;;;;;;;5094385;28;7520;-73
2023/04/01 20:44:20;;;;;;;;;;;;;;;;;;5094139;28;7606;-72
2023/04/01 20:46:45;;;;;;;;;;;;;;;;;;5094282;28;7549;-72
2023/04/01 20:49:10;;;;;;;;;;;;;;;;;;5073082;28;7528;-73
2023/04/01 20:51:35;;;;;;;;;;;;;;;;;;5073676;28;7672;-73
2023/04/01 20:54:00;;;;;;;;;;;;;;;;;;5073504;28;7536;-76
2023/04/01 20:56:25;;;;;;;;;;;;;;;;;;5074009;28;7625;-78
2023/04/01 20:58:51;;;;;;;;;;;;;;;;;;5054157;28;7521;-76
2023/04/01 21:01:16;;;;;;;;;;;;;;;;;;5073375;28;7619;-74
2023/04/01 21:03:41;;;;;;;;;;;;;;;;;;5073353;28;7528;-75
2023/04/01 21:06:06;;;;;;;;;;;;;;;;;;5055552;28;7960;-72
2023/04/01 21:08:31;;;;;;;;;;;;;;;;;;5053416;28;7532;-73
